KTOL/TOL METAR and TAF weather

Enter ICAO airport designator
Station Type Date Time Source
KTOL METAR 2019/12/08 00:52 UTC NOAA

KTOL 080052Z 00000KT 10SM OVC095 M01/M06 A3033 RMK AO2 SLP280 T10061056


Station Type Date Time Source
KTOL Decoded METAR 2019/12/08 00:52 UTC NOAA

TOLEDO EXPRESS AIRPORT, OH, United States (KTOL) 41-35N 083-48W 210M
Dec 07, 2019 - 07:52 PM EST / 2019.12.08 0052 UTC
Wind: Calm:0
Visibility: 10 mile(s):0
Sky conditions: overcast
Temperature: 30.9 F (-0.6 C)
Dew Point: 21.9 F (-5.6 C)
Relative Humidity: 68%
Pressure (altimeter): 30.33 in. Hg (1027 hPa)
ob: KTOL 080052Z 00000KT 10SM OVC095 M01/M06 A3033 RMK AO2 SLP280 T10061056
cycle: 1

Station Type Date Time Source
KTOL TAF 2019/12/07 18:33 UTC NOAA

TAF KTOL 071731Z 0718/0818 20006KT P6SM BKN120
FM081700 21010G20KT P6SM OVC080

Example: see airport list